Time;durP1;ratioP1;P1;durP2;ratioP2;P2;SDS_P1;SDS_P2;PMS_P1;PMS_P2;Temp;Humidity;BMP_temperature;BMP_pressure;BME280_temperature;BME280_humidity;BME280_pressure;Samples;Min_cycle;Max_cycle;Signal;HPM_P1;HPM_P2
2021/10/31 00:02:23;;;;;;;9.65;6.95;;;11.20;99.90;;;;;;5059113;28;20608;-94
2021/10/31 00:04:49;;;;;;;10.45;6.85;;;11.30;99.90;;;;;;5059171;28;20176;-93
2021/10/31 00:07:16;;;;;;;11.85;7.13;;;11.30;99.90;;;;;;5058625;28;20216;-94
2021/10/31 00:09:47;;;;;;;9.95;7.25;;;11.30;99.90;;;;;;5042928;28;20201;-93
2021/10/31 00:12:12;;;;;;;8.93;7.15;;;11.40;99.90;;;;;;5077685;28;20168;-94
2021/10/31 00:14:39;;;;;;;14.38;6.90;;;11.40;99.90;;;;;;5077850;28;20192;-93
2021/10/31 00:17:05;;;;;;;8.00;6.18;;;11.40;99.90;;;;;;5043995;28;20185;-93
2021/10/31 00:19:40;;;;;;;10.30;6.63;;;11.40;99.90;;;;;;5060607;28;20659;-93
2021/10/31 00:22:06;;;;;;;7.50;6.05;;;11.40;99.90;;;;;;5062171;28;20202;-93
2021/10/31 00:24:32;;;;;;;8.35;6.32;;;11.40;99.90;;;;;;5060025;28;20181;-92
2021/10/31 00:26:57;;;;;;;9.93;6.50;;;11.50;99.90;;;;;;5059735;28;20292;-93
2021/10/31 00:29:24;;;;;;;8.18;5.97;;;11.50;99.90;;;;;;5061185;28;20221;-92
2021/10/31 00:31:50;;;;;;;9.00;6.47;;;11.60;99.90;;;;;;5062126;28;20207;-93
2021/10/31 00:34:16;;;;;;;7.95;6.00;;;11.60;99.90;;;;;;5061883;28;20177;-94
2021/10/31 00:36:41;;;;;;;7.40;6.40;;;11.60;99.90;;;;;;5062963;28;20192;-94
2021/10/31 00:39:07;;;;;;;10.35;6.05;;;11.70;99.90;;;;;;5062908;28;20173;-94
2021/10/31 00:41:34;;;;;;;8.70;6.38;;;11.80;99.90;;;;;;5063159;28;20177;-92
2021/10/31 00:44:00;;;;;;;8.50;6.25;;;11.80;99.90;;;;;;5064395;28;20236;-93
2021/10/31 00:46:25;;;;;;;8.00;5.75;;;11.90;99.90;;;;;;5064609;28;20211;-93
2021/10/31 00:48:54;;;;;;;7.80;6.35;;;11.90;99.90;;;;;;5064271;28;20174;-93
2021/10/31 00:51:19;;;;;;;8.77;6.72;;;11.90;99.90;;;;;;5063236;28;20208;-93
2021/10/31 00:53:47;;;;;;;9.55;6.57;;;11.90;99.90;;;;;;5065357;28;20181;-94
2021/10/31 00:56:13;;;;;;;9.20;6.43;;;11.90;99.90;;;;;;5048551;28;20185;-94
2021/10/31 00:58:39;;;;;;;10.40;6.72;;;12.00;99.90;;;;;;5044817;28;20205;-93
2021/10/31 01:01:05;;;;;;;9.70;6.53;;;11.90;99.90;;;;;;5045431;28;20177;-94
2021/10/31 01:03:31;;;;;;;7.38;6.60;;;11.90;99.90;;;;;;5044817;28;20177;-93
2021/10/31 01:06:22;;;;;;;10.02;7.30;;;11.90;99.90;;;;;;5044537;28;20182;-92
2021/10/31 01:12:48;;;;;;;9.15;6.68;;;11.90;99.90;;;;;;5060667;28;20186;-93
2021/10/31 01:15:13;;;;;;;8.77;6.65;;;12.00;99.90;;;;;;5061454;28;20252;-94
2021/10/31 01:18:20;;;;;;;11.10;6.97;;;12.00;99.90;;;;;;5043325;28;20181;-93
2021/10/31 01:21:27;;;;;;;10.27;7.20;;;12.00;99.90;;;;;;5043237;28;20197;-92
2021/10/31 01:24:50;;;;;;;8.93;6.82;;;12.00;99.90;;;;;;5043640;28;20185;-93
2021/10/31 01:28:05;;;;;;;9.93;6.78;;;12.00;99.90;;;;;;5002414;28;20245;-93
2021/10/31 01:31:04;;;;;;;7.63;6.32;;;12.00;99.90;;;;;;5002593;28;20210;-93
2021/10/31 01:34:04;;;;;;;10.57;7.43;;;12.10;99.90;;;;;;5062449;28;20561;-92
2021/10/31 01:36:35;;;;;;;8.48;6.78;;;12.10;99.90;;;;;;5047124;28;20184;-93
2021/10/31 01:39:04;;;;;;;9.30;6.95;;;12.10;99.90;;;;;;5061702;28;20568;-93
2021/10/31 01:41:48;;;;;;;8.70;6.47;;;12.10;99.90;;;;;;5061532;28;20261;-94
2021/10/31 01:44:32;;;;;;;9.63;7.38;;;12.00;99.90;;;;;;5061376;28;20181;-93
2021/10/31 01:47:20;;;;;;;9.52;6.90;;;12.10;99.90;;;;;;5061323;28;20204;-93
2021/10/31 01:50:40;;;;;;;10.98;7.40;;;12.10;99.90;;;;;;5078730;28;20201;-94
2021/10/31 01:53:25;;;;;;;9.63;6.72;;;12.00;99.90;;;;;;5046569;28;20177;-92
2021/10/31 01:56:00;;;;;;;11.45;7.82;;;12.00;99.90;;;;;;5068789;28;20173;-93
2021/10/31 01:58:30;;;;;;;8.73;7.22;;;12.10;99.90;;;;;;5069047;28;20181;-92
2021/10/31 02:00:58;;;;;;;11.18;7.28;;;12.00;99.90;;;;;;5066584;28;20588;-93
2021/10/31 02:03:25;;;;;;;8.30;7.00;;;12.00;99.90;;;;;;5085866;28;20218;-93
2021/10/31 02:05:53;;;;;;;9.25;7.00;;;12.00;99.90;;;;;;5071319;28;20197;-93
2021/10/31 02:08:22;;;;;;;10.50;7.28;;;12.00;99.90;;;;;;5086834;28;20173;-93
2021/10/31 02:10:56;;;;;;;9.10;6.82;;;11.90;99.90;;;;;;5069980;28;20233;-93
2021/10/31 02:13:25;;;;;;;11.10;6.80;;;11.90;99.90;;;;;;5089062;28;20595;-93
2021/10/31 02:15:53;;;;;;;9.57;6.97;;;11.90;99.90;;;;;;5070582;28;20174;-92
2021/10/31 02:18:21;;;;;;;8.18;6.72;;;11.90;99.90;;;;;;5068340;28;20616;-93
2021/10/31 02:21:00;;;;;;;9.40;6.78;;;11.90;99.90;;;;;;5066291;28;20200;-93
2021/10/31 02:23:26;;;;;;;9.00;6.90;;;11.80;99.90;;;;;;5069641;28;20177;-93
2021/10/31 02:25:52;;;;;;;9.07;7.18;;;11.80;99.90;;;;;;5069447;28;20603;-93
2021/10/31 02:28:18;;;;;;;9.18;7.43;;;11.80;99.90;;;;;;5067725;28;20282;-93
2021/10/31 02:30:51;;;;;;;8.90;7.15;;;11.80;99.90;;;;;;5067806;28;20220;-93
2021/10/31 02:33:17;;;;;;;12.10;7.15;;;11.80;99.90;;;;;;5067083;28;20197;-93
2021/10/31 02:35:46;;;;;;;8.90;6.70;;;11.80;99.90;;;;;;5066803;28;20203;-93
2021/10/31 02:38:13;;;;;;;8.20;6.68;;;11.80;99.90;;;;;;5067734;28;20247;-92
2021/10/31 02:40:42;;;;;;;9.63;7.25;;;11.90;99.90;;;;;;5067417;28;20179;-92
2021/10/31 02:43:08;;;;;;;8.55;7.28;;;11.90;99.90;;;;;;5066898;28;20180;-94
2021/10/31 02:45:34;;;;;;;9.30;7.32;;;11.90;99.90;;;;;;5067013;28;20188;-93
2021/10/31 02:48:09;;;;;;;10.45;7.50;;;12.00;99.90;;;;;;5066618;28;20627;-93
2021/10/31 02:50:59;;;;;;;10.82;8.23;;;12.00;99.90;;;;;;5066262;28;20209;-94
2021/10/31 02:53:33;;;;;;;12.40;7.75;;;12.00;99.90;;;;;;5064978;28;20207;-93
2021/10/31 02:56:06;;;;;;;9.73;7.45;;;12.00;99.90;;;;;;5067134;28;20220;-93
2021/10/31 02:58:56;;;;;;;10.27;7.93;;;12.00;99.90;;;;;;5065495;28;20219;-94
2021/10/31 03:01:25;;;;;;;10.85;7.90;;;12.00;99.90;;;;;;5066118;28;20177;-93
2021/10/31 03:03:54;;;;;;;12.00;7.80;;;12.00;99.90;;;;;;5064072;28;20196;-93
2021/10/31 03:06:21;;;;;;;10.40;7.82;;;12.00;99.90;;;;;;5047333;28;20196;-94
2021/10/31 03:08:47;;;;;;;9.60;7.97;;;12.00;99.90;;;;;;5063235;28;20262;-92
2021/10/31 03:11:57;;;;;;;9.35;7.95;;;12.00;99.90;;;;;;5065310;28;20205;-92
2021/10/31 03:14:23;;;;;;;10.05;7.53;;;11.90;99.90;;;;;;5082911;28;20173;-93
2021/10/31 03:16:48;;;;;;;11.10;8.35;;;11.90;99.90;;;;;;5066693;28;20176;-93
2021/10/31 03:19:17;;;;;;;9.63;8.20;;;11.90;99.90;;;;;;5065717;28;20191;-93
2021/10/31 03:21:46;;;;;;;12.18;9.05;;;11.90;99.90;;;;;;5065993;28;20173;-93
2021/10/31 03:24:11;;;;;;;10.63;8.57;;;12.00;99.90;;;;;;5065713;28;20564;-93
2021/10/31 03:26:37;;;;;;;8.52;7.63;;;11.90;99.90;;;;;;5060387;28;20181;-92
2021/10/31 03:29:03;;;;;;;9.77;8.20;;;11.90;99.90;;;;;;5060223;28;20196;-93
2021/10/31 03:31:39;;;;;;;14.05;8.98;;;12.00;99.90;;;;;;5061197;28;20178;-93
2021/10/31 03:34:04;;;;;;;11.35;9.10;;;12.00;99.90;;;;;;5061036;28;20208;-92
2021/10/31 03:36:30;;;;;;;12.77;9.25;;;12.00;99.90;;;;;;5060838;28;20232;-93
2021/10/31 03:38:56;;;;;;;11.13;9.27;;;12.00;99.90;;;;;;5062878;28;20173;-92
2021/10/31 03:41:38;;;;;;;9.68;8.23;;;12.00;99.90;;;;;;5070048;28;20180;-93
2021/10/31 03:44:04;;;;;;;11.52;9.05;;;12.00;99.90;;;;;;5069612;28;20244;-94
2021/10/31 03:46:31;;;;;;;11.90;9.23;;;12.10;99.90;;;;;;5051924;28;20211;-93
2021/10/31 03:48:57;;;;;;;13.48;9.48;;;12.10;99.90;;;;;;5068423;28;20173;-93
2021/10/31 03:51:26;;;;;;;10.57;8.68;;;12.10;99.90;;;;;;5069975;28;20238;-93
2021/10/31 03:53:51;;;;;;;12.45;9.20;;;12.10;99.90;;;;;;5068998;28;20173;-93
2021/10/31 03:56:21;;;;;;;13.15;8.90;;;12.10;99.90;;;;;;5069376;28;20177;-93
2021/10/31 03:58:47;;;;;;;10.98;8.70;;;12.10;99.90;;;;;;5069506;28;20177;-92
2021/10/31 04:01:15;;;;;;;10.35;8.68;;;12.10;99.90;;;;;;5064265;28;20173;-93
2021/10/31 04:03:43;;;;;;;12.38;9.25;;;12.10;99.90;;;;;;5058972;28;20224;-93
2021/10/31 04:06:08;;;;;;;11.38;9.10;;;12.10;99.90;;;;;;5058952;28;20181;-92
2021/10/31 04:08:34;;;;;;;11.77;9.40;;;12.10;99.90;;;;;;5058743;28;20180;-92
2021/10/31 04:11:01;;;;;;;14.23;9.57;;;12.20;99.90;;;;;;5059084;28;20268;-94
2021/10/31 04:13:26;;;;;;;13.60;9.35;;;12.10;99.90;;;;;;5058875;28;20181;-93
2021/10/31 04:15:52;;;;;;;11.50;9.07;;;12.10;99.90;;;;;;5058835;28;20184;-93
2021/10/31 04:18:18;;;;;;;11.80;8.50;;;12.20;99.90;;;;;;5058626;28;20189;-93
2021/10/31 04:21:06;;;;;;;14.05;9.90;;;12.10;99.90;;;;;;5059761;28;20545;-93
2021/10/31 04:23:32;;;;;;;12.55;10.13;;;12.20;99.90;;;;;;5059593;28;20580;-93
2021/10/31 04:25:57;;;;;;;11.75;9.60;;;12.20;99.90;;;;;;5060157;28;20256;-93
2021/10/31 04:28:24;;;;;;;12.07;9.48;;;12.20;99.90;;;;;;5060034;28;20695;-94
2021/10/31 04:30:51;;;;;;;15.13;9.40;;;12.20;99.90;;;;;;5061151;28;20216;-93
2021/10/31 04:33:18;;;;;;;11.35;8.98;;;12.20;99.90;;;;;;5061179;28;20216;-93
2021/10/31 04:35:43;;;;;;;10.30;8.82;;;12.20;99.90;;;;;;5059112;28;20227;-94
2021/10/31 04:38:16;;;;;;;11.73;8.80;;;12.20;99.90;;;;;;5058335;28;20185;-93
2021/10/31 04:40:42;;;;;;;12.55;8.85;;;12.20;99.90;;;;;;5058428;28;20177;-94
2021/10/31 04:43:11;;;;;;;12.68;9.70;;;12.20;99.90;;;;;;5057911;28;20211;-93
2021/10/31 04:45:44;;;;;;;13.15;9.93;;;12.20;99.90;;;;;;5076243;28;20171;-94
2021/10/31 04:48:12;;;;;;;9.90;8.90;;;12.20;99.90;;;;;;5062085;28;20228;-94
2021/10/31 04:50:41;;;;;;;11.40;9.48;;;12.20;99.90;;;;;;5061327;28;20291;-93
2021/10/31 04:53:08;;;;;;;10.95;8.90;;;12.20;99.90;;;;;;5061727;28;20177;-94
2021/10/31 04:55:38;;;;;;;11.32;9.20;;;12.20;99.90;;;;;;5058550;28;20643;-93
2021/10/31 04:58:04;;;;;;;11.55;8.75;;;12.20;99.90;;;;;;5057610;28;20189;-92
2021/10/31 05:00:33;;;;;;;10.75;8.65;;;12.20;99.90;;;;;;5058159;28;20178;-93
2021/10/31 05:03:01;;;;;;;11.32;9.10;;;12.20;99.90;;;;;;5058240;28;20190;-93
2021/10/31 05:05:28;;;;;;;11.20;9.20;;;12.20;99.90;;;;;;5058506;28;20233;-93
2021/10/31 05:07:57;;;;;;;10.32;8.63;;;12.20;99.90;;;;;;5057882;28;20177;-93
2021/10/31 05:10:25;;;;;;;10.50;8.73;;;12.10;99.90;;;;;;5058758;28;20209;-93
2021/10/31 05:13:01;;;;;;;12.07;9.15;;;12.10;99.90;;;;;;5058508;28;20584;-93
2021/10/31 05:15:27;;;;;;;10.52;8.68;;;12.10;99.90;;;;;;5058623;28;20184;-93
2021/10/31 05:17:56;;;;;;;10.18;9.05;;;12.00;99.90;;;;;;5058274;28;20205;-93
2021/10/31 05:20:23;;;;;;;10.27;8.93;;;12.00;99.90;;;;;;5059576;28;20184;-94
2021/10/31 05:22:50;;;;;;;11.65;9.02;;;12.00;99.90;;;;;;5077869;28;20197;-93
2021/10/31 05:25:16;;;;;;;9.77;8.40;;;12.00;99.90;;;;;;5059959;28;20227;-94
2021/10/31 05:27:45;;;;;;;9.38;7.72;;;11.90;99.90;;;;;;5060915;28;20663;-93
2021/10/31 05:30:13;;;;;;;8.98;7.97;;;11.90;99.90;;;;;;5064150;28;20257;-94
2021/10/31 05:32:47;;;;;;;14.10;9.27;;;11.80;99.90;;;;;;5065414;28;20277;-92
2021/10/31 05:35:12;;;;;;;9.90;8.63;;;11.80;99.90;;;;;;5065477;28;20222;-93
2021/10/31 05:37:45;;;;;;;9.85;8.85;;;11.70;99.90;;;;;;5064274;28;20558;-94
2021/10/31 05:40:16;;;;;;;11.15;8.38;;;11.70;99.90;;;;;;5064407;28;20486;-93
2021/10/31 05:43:08;;;;;;;10.60;9.07;;;11.60;99.90;;;;;;5064422;28;20173;-93
2021/10/31 05:45:33;;;;;;;11.05;8.70;;;11.50;99.90;;;;;;5082639;28;20354;-94
2021/10/31 05:47:59;;;;;;;11.80;9.63;;;11.50;99.90;;;;;;5064982;28;20173;-93
2021/10/31 05:50:25;;;;;;;12.27;9.70;;;11.40;99.90;;;;;;5065280;28;20213;-93
2021/10/31 05:53:04;;;;;;;13.32;10.07;;;11.40;99.90;;;;;;5064595;28;20174;-93
2021/10/31 05:55:35;;;;;;;13.25;10.80;;;11.40;99.90;;;;;;5053522;28;20192;-95
2021/10/31 05:58:01;;;;;;;14.00;10.73;;;11.40;99.90;;;;;;5061781;28;20181;-93
2021/10/31 06:00:27;;;;;;;11.48;9.32;;;11.40;99.90;;;;;;5065307;28;20197;-93
2021/10/31 06:02:55;;;;;;;12.88;10.73;;;11.30;99.90;;;;;;5064930;28;20200;-94
2021/10/31 06:05:21;;;;;;;12.32;10.13;;;11.40;99.90;;;;;;5066350;28;20177;-93
2021/10/31 06:07:46;;;;;;;13.30;10.27;;;11.30;99.90;;;;;;5065648;28;20173;-93
2021/10/31 06:10:13;;;;;;;13.00;10.52;;;11.30;99.90;;;;;;5065088;28;20201;-92
2021/10/31 06:12:54;;;;;;;12.43;10.23;;;11.30;99.90;;;;;;5064623;28;20272;-93
2021/10/31 06:15:26;;;;;;;12.05;10.73;;;11.30;99.90;;;;;;5047912;28;20161;-93
2021/10/31 06:17:52;;;;;;;14.00;11.40;;;11.30;99.90;;;;;;5064744;28;20177;-93
2021/10/31 06:20:18;;;;;;;12.93;10.82;;;11.30;99.90;;;;;;5064745;28;20247;-92
2021/10/31 06:22:44;;;;;;;12.10;10.75;;;11.30;99.90;;;;;;5063518;28;20177;-93
2021/10/31 06:25:11;;;;;;;12.38;10.60;;;11.30;99.90;;;;;;5066972;28;20192;-94
2021/10/31 06:27:37;;;;;;;12.90;9.63;;;11.30;99.90;;;;;;5066602;28;20320;-93
2021/10/31 06:30:07;;;;;;;13.18;10.57;;;11.30;99.90;;;;;;5066674;28;20262;-94
2021/10/31 06:32:51;;;;;;;12.57;10.45;;;11.40;99.90;;;;;;5067788;28;20173;-93
2021/10/31 06:35:17;;;;;;;13.18;10.93;;;11.40;99.90;;;;;;5062634;28;20506;-93
2021/10/31 06:37:43;;;;;;;13.65;10.98;;;11.40;99.90;;;;;;5067346;28;20187;-93
2021/10/31 06:40:10;;;;;;;15.85;11.68;;;11.40;99.90;;;;;;5066583;28;20185;-94
2021/10/31 06:42:42;;;;;;;12.85;11.02;;;11.40;99.90;;;;;;5066053;28;20626;-94
2021/10/31 06:45:09;;;;;;;13.82;11.93;;;11.40;99.90;;;;;;5066720;28;20206;-94
2021/10/31 06:47:34;;;;;;;11.20;10.00;;;11.40;99.90;;;;;;5051904;28;20192;-94
2021/10/31 06:50:01;;;;;;;12.55;10.65;;;11.40;99.90;;;;;;5067977;28;20205;-94
2021/10/31 06:52:28;;;;;;;12.70;10.20;;;11.40;99.90;;;;;;5068248;28;20197;-94
2021/10/31 06:54:54;;;;;;;12.32;9.77;;;11.40;99.90;;;;;;5067162;28;20180;-94
2021/10/31 06:57:21;;;;;;;12.73;10.60;;;11.40;99.90;;;;;;5063941;28;20185;-94
2021/10/31 06:59:46;;;;;;;11.70;9.18;;;11.40;99.90;;;;;;5067888;28;20201;-93
2021/10/31 07:02:13;;;;;;;11.65;9.52;;;11.40;99.90;;;;;;5065794;28;20184;-94
2021/10/31 07:05:17;;;;;;;11.52;8.95;;;11.30;99.90;;;;;;5069123;28;20213;-93
2021/10/31 07:07:43;;;;;;;13.05;9.75;;;11.30;99.90;;;;;;5066032;28;20276;-94
2021/10/31 07:10:09;;;;;;;11.18;9.05;;;11.30;99.90;;;;;;5065890;28;20204;-94
2021/10/31 07:12:37;;;;;;;12.38;8.60;;;11.30;99.90;;;;;;5063434;28;20276;-93
2021/10/31 07:15:04;;;;;;;11.68;8.63;;;11.30;99.90;;;;;;5066598;28;20166;-95
2021/10/31 07:17:29;;;;;;;12.35;9.55;;;11.30;99.90;;;;;;5062099;28;20165;-96
2021/10/31 07:19:55;;;;;;;10.63;8.43;;;11.30;99.90;;;;;;5063481;28;20191;-94
2021/10/31 07:22:21;;;;;;;10.75;8.35;;;11.30;99.90;;;;;;5043792;28;20216;-94
2021/10/31 07:24:49;;;;;;;13.02;9.27;;;11.30;99.90;;;;;;5058648;28;20208;-95
2021/10/31 07:27:14;;;;;;;11.75;9.02;;;11.30;99.90;;;;;;5055942;28;20256;-95
2021/10/31 07:29:40;;;;;;;10.75;8.48;;;11.30;99.90;;;;;;5056167;28;20248;-95
2021/10/31 07:32:08;;;;;;;10.18;8.38;;;11.30;99.90;;;;;;5055222;28;20181;-95
2021/10/31 07:34:34;;;;;;;15.57;9.20;;;11.30;99.90;;;;;;5055442;28;20280;-96
2021/10/31 07:37:02;;;;;;;11.50;8.57;;;11.30;99.90;;;;;;5042858;28;20689;-95
2021/10/31 07:39:30;;;;;;;10.10;8.40;;;11.40;99.90;;;;;;5056576;28;20617;-96
2021/10/31 07:41:55;;;;;;;11.52;9.23;;;11.40;99.90;;;;;;5061755;28;20193;-96
2021/10/31 07:44:32;;;;;;;10.43;8.77;;;11.40;99.90;;;;;;5061146;28;20178;-96
2021/10/31 07:46:57;;;;;;;9.43;8.35;;;11.40;99.90;;;;;;5059262;28;20505;-96
2021/10/31 07:49:23;;;;;;;9.32;8.13;;;11.50;99.90;;;;;;5055283;28;20185;-96
2021/10/31 07:51:49;;;;;;;9.50;8.50;;;11.50;99.90;;;;;;5055723;28;20181;-96
2021/10/31 07:54:22;;;;;;;9.50;8.23;;;11.50;99.90;;;;;;5057990;28;20178;-96
2021/10/31 07:56:49;;;;;;;10.88;8.55;;;11.50;99.90;;;;;;5047260;28;20213;-96
2021/10/31 07:59:15;;;;;;;11.70;8.65;;;11.50;99.90;;;;;;5038106;28;20663;-96
2021/10/31 08:01:40;;;;;;;10.60;8.40;;;11.60;99.90;;;;;;5042204;28;20163;-96
2021/10/31 08:04:14;;;;;;;9.07;7.70;;;11.60;99.90;;;;;;5039693;28;20155;-96
2021/10/31 08:06:39;;;;;;;10.73;8.27;;;11.60;99.90;;;;;;5039145;28;20179;-95
2021/10/31 08:09:05;;;;;;;9.55;8.10;;;11.60;99.90;;;;;;5037482;28;20198;-95
2021/10/31 08:11:31;;;;;;;9.35;8.35;;;11.70;99.90;;;;;;5021092;28;20218;-96
2021/10/31 08:14:04;;;;;;;9.43;8.07;;;11.80;99.90;;;;;;5053030;28;20185;-95
2021/10/31 08:16:36;;;;;;;10.63;8.73;;;11.90;99.90;;;;;;5057054;28;20247;-96
2021/10/31 08:19:07;;;;;;;8.95;7.85;;;12.00;99.90;;;;;;5056223;28;20297;-94
2021/10/31 08:21:34;;;;;;;9.52;8.02;;;12.00;99.90;;;;;;5054857;28;20173;-94
2021/10/31 08:24:01;;;;;;;8.77;7.88;;;12.00;99.90;;;;;;5043444;28;20494;-94
2021/10/31 08:26:27;;;;;;;8.38;7.43;;;12.00;99.90;;;;;;5038291;28;20196;-94
2021/10/31 08:28:56;;;;;;;8.32;7.43;;;12.10;99.90;;;;;;5057492;28;20232;-94
2021/10/31 08:31:26;;;;;;;9.48;7.35;;;12.10;99.90;;;;;;5056164;28;20221;-95
2021/10/31 08:34:02;;;;;;;8.75;7.40;;;12.10;99.90;;;;;;5041779;28;20172;-93
2021/10/31 08:36:30;;;;;;;10.43;7.45;;;12.10;99.90;;;;;;5045837;28;20263;-95
2021/10/31 08:38:57;;;;;;;9.38;7.03;;;12.20;99.90;;;;;;5060442;28;20191;-94
2021/10/31 08:41:28;;;;;;;8.88;7.28;;;12.20;99.90;;;;;;5061199;28;20223;-95
2021/10/31 08:43:59;;;;;;;10.18;6.45;;;12.30;99.90;;;;;;5044944;28;20557;-94
2021/10/31 08:46:29;;;;;;;8.13;6.43;;;12.30;99.90;;;;;;5068483;28;20164;-95
2021/10/31 08:48:55;;;;;;;7.03;6.30;;;12.40;99.90;;;;;;5043402;28;20528;-95
2021/10/31 08:51:23;;;;;;;8.43;6.03;;;12.50;99.90;;;;;;5060564;28;20212;-95
2021/10/31 08:53:50;;;;;;;7.30;6.22;;;12.50;99.90;;;;;;5043737;28;20189;-95
2021/10/31 08:56:16;;;;;;;7.43;6.00;;;12.60;99.90;;;;;;5060657;28;20631;-95
2021/10/31 08:58:43;;;;;;;8.43;5.60;;;12.70;99.90;;;;;;5059058;28;20543;-94
2021/10/31 09:01:12;;;;;;;7.82;5.70;;;12.70;99.90;;;;;;5057250;28;20180;-95
2021/10/31 09:03:40;;;;;;;6.68;5.43;;;12.80;99.90;;;;;;5038038;28;20179;-94
2021/10/31 09:06:10;;;;;;;6.00;5.38;;;12.90;99.90;;;;;;5040359;28;20228;-94
2021/10/31 09:08:42;;;;;;;5.57;5.00;;;13.00;99.90;;;;;;5062973;28;20166;-94
2021/10/31 09:11:09;;;;;;;6.15;5.53;;;13.10;99.90;;;;;;5058449;28;20228;-94
2021/10/31 09:13:37;;;;;;;6.60;5.82;;;13.10;99.90;;;;;;5042989;28;20178;-95
2021/10/31 09:16:04;;;;;;;6.38;5.28;;;13.20;99.90;;;;;;5041217;28;20591;-95
2021/10/31 09:18:31;;;;;;;7.95;5.35;;;13.30;99.90;;;;;;5044083;28;20616;-95
2021/10/31 09:20:57;;;;;;;6.10;5.05;;;13.40;99.90;;;;;;5046137;28;20182;-95
2021/10/31 09:23:24;;;;;;;5.78;4.63;;;13.50;99.90;;;;;;5044520;28;20185;-94
2021/10/31 09:25:57;;;;;;;5.53;4.95;;;13.60;99.90;;;;;;5043877;28;20178;-95
2021/10/31 09:28:24;;;;;;;7.82;5.22;;;13.70;99.90;;;;;;5051171;28;20312;-94
2021/10/31 09:30:50;;;;;;;5.45;4.57;;;13.80;99.90;;;;;;5060284;28;20208;-95
2021/10/31 09:33:16;;;;;;;5.50;4.53;;;13.90;99.90;;;;;;5065097;28;20181;-95
2021/10/31 09:35:58;;;;;;;5.63;4.30;;;14.00;99.90;;;;;;5056720;28;20315;-95
2021/10/31 09:38:26;;;;;;;5.47;4.57;;;14.20;99.90;;;;;;5051331;28;20201;-96
2021/10/31 09:40:54;;;;;;;4.68;4.03;;;14.30;99.90;;;;;;5066189;28;20207;-96
2021/10/31 09:43:26;;;;;;;5.13;4.07;;;14.30;99.90;;;;;;5069861;28;20552;-96
2021/10/31 09:46:07;;;;;;;5.22;3.97;;;14.40;99.90;;;;;;5088527;28;20180;-96
2021/10/31 09:48:33;;;;;;;5.28;3.60;;;14.50;99.90;;;;;;5071883;28;20165;-95
2021/10/31 09:51:00;;;;;;;5.00;3.47;;;14.50;99.90;;;;;;5070967;28;20227;-96
2021/10/31 09:53:28;;;;;;;5.25;3.50;;;14.60;99.90;;;;;;5062653;28;20182;-94
2021/10/31 09:56:05;;;;;;;7.28;3.33;;;14.60;99.90;;;;;;5047432;28;20366;-96
2021/10/31 09:58:41;;;;;;;3.63;3.10;;;14.70;99.90;;;;;;5050173;28;20173;-95
2021/10/31 10:02:08;;;;;;;3.97;3.35;;;14.80;99.90;;;;;;5068494;28;20192;-96
2021/10/31 10:04:33;;;;;;;3.85;3.05;;;14.90;99.90;;;;;;5071308;28;20319;-95
2021/10/31 10:07:02;;;;;;;4.93;3.00;;;15.00;99.90;;;;;;5071819;28;20170;-96
2021/10/31 10:09:29;;;;;;;5.13;2.85;;;15.10;99.90;;;;;;5070064;28;20260;-96
2021/10/31 10:11:56;;;;;;;4.15;2.60;;;15.20;99.90;;;;;;5069000;28;20246;-95
2021/10/31 10:14:32;;;;;;;3.45;2.58;;;15.30;99.90;;;;;;5065271;28;20169;-96
2021/10/31 10:17:03;;;;;;;3.13;2.58;;;15.40;99.90;;;;;;5066673;28;20195;-95
2021/10/31 10:19:44;;;;;;;4.15;2.40;;;15.40;99.90;;;;;;5066904;28;20179;-96
2021/10/31 10:22:14;;;;;;;2.47;2.00;;;15.50;99.90;;;;;;5069879;28;20177;-95
2021/10/31 10:25:11;;;;;;;2.45;2.00;;;15.50;99.90;;;;;;5070029;28;20174;-96
2021/10/31 10:27:55;;;;;;;2.28;2.08;;;15.50;99.90;;;;;;5069464;28;20323;-96
2021/10/31 10:30:24;;;;;;;3.88;1.90;;;15.60;99.90;;;;;;5070643;28;20262;-95
2021/10/31 10:32:57;;;;;;;2.67;2.05;;;15.60;99.90;;;;;;5087888;28;20189;-94
2021/10/31 10:35:28;;;;;;;2.28;1.88;;;15.60;99.90;;;;;;5071215;28;20267;-95
2021/10/31 10:37:55;;;;;;;1.83;1.70;;;15.70;99.90;;;;;;5052758;28;20181;-96
2021/10/31 10:40:28;;;;;;;5.00;1.50;;;15.70;99.90;;;;;;5070232;28;20203;-96
2021/10/31 10:43:00;;;;;;;2.05;1.30;;;15.70;99.90;;;;;;5070025;28;20177;-95
2021/10/31 10:45:43;;;;;;;2.72;1.42;;;15.60;99.90;;;;;;5068320;28;20185;-96
2021/10/31 10:48:15;;;;;;;2.00;1.40;;;15.60;99.90;;;;;;5060795;28;20665;-95
2021/10/31 10:50:43;;;;;;;2.92;1.50;;;15.50;99.90;;;;;;5068445;28;20220;-96
2021/10/31 10:53:19;;;;;;;2.45;1.58;;;15.50;99.90;;;;;;5064556;28;20187;-95
2021/10/31 10:55:47;;;;;;;2.05;1.40;;;15.60;99.90;;;;;;5065331;28;20180;-95
2021/10/31 10:58:15;;;;;;;2.75;1.60;;;15.60;99.90;;;;;;5065478;28;20176;-96
2021/10/31 11:00:46;;;;;;;1.92;1.48;;;15.50;99.90;;;;;;5065205;28;20205;-95
2021/10/31 11:03:15;;;;;;;2.67;1.42;;;15.50;99.90;;;;;;5067132;28;20184;-95
2021/10/31 11:05:44;;;;;;;3.35;1.50;;;15.50;99.90;;;;;;5067254;28;20161;-95
2021/10/31 11:08:28;;;;;;;1.55;1.30;;;15.60;99.90;;;;;;5067011;28;20231;-95
2021/10/31 11:11:10;;;;;;;1.45;1.20;;;15.70;99.90;;;;;;5068738;28;20208;-95
2021/10/31 11:13:46;;;;;;;2.65;1.20;;;15.70;99.90;;;;;;5062451;28;20185;-95
2021/10/31 11:16:22;;;;;;;2.88;1.42;;;15.70;99.90;;;;;;5066716;28;20588;-96
2021/10/31 11:18:52;;;;;;;1.33;1.20;;;15.70;99.90;;;;;;5066653;28;20184;-96
2021/10/31 11:21:18;;;;;;;1.48;1.30;;;15.70;99.90;;;;;;5053946;28;20236;-96
2021/10/31 11:23:46;;;;;;;1.75;1.30;;;15.70;99.90;;;;;;5070364;28;20185;-96
2021/10/31 11:26:29;;;;;;;3.58;1.40;;;15.80;99.90;;;;;;5068108;28;20177;-96
2021/10/31 11:28:56;;;;;;;2.35;1.33;;;15.90;99.90;;;;;;5051633;28;20236;-96
2021/10/31 11:31:22;;;;;;;3.83;1.40;;;15.90;99.90;;;;;;5053854;28;20252;-96
2021/10/31 11:33:52;;;;;;;3.28;1.60;;;16.00;99.90;;;;;;5085969;28;20179;-96
2021/10/31 11:36:38;;;;;;;3.10;1.42;;;16.00;99.90;;;;;;5068487;28;20199;-96
2021/10/31 11:39:08;;;;;;;3.35;1.58;;;16.10;99.90;;;;;;5067678;28;20157;-96
2021/10/31 11:41:35;;;;;;;2.97;1.20;;;16.00;99.90;;;;;;5070209;28;20154;-96
2021/10/31 11:44:03;;;;;;;2.58;1.63;;;16.10;99.90;;;;;;5068261;28;20245;-96
2021/10/31 11:46:49;;;;;;;2.35;1.33;;;16.10;99.90;;;;;;5089731;23;20234;-96
2021/10/31 11:49:17;;;;;;;2.67;1.63;;;16.20;99.90;;;;;;5091552;28;20271;-96
2021/10/31 11:51:47;;;;;;;2.05;1.38;;;16.10;99.90;;;;;;5088592;28;20195;-96
2021/10/31 11:54:15;;;;;;;1.88;1.50;;;16.20;99.90;;;;;;5083961;28;20225;-96
2021/10/31 11:56:54;;;;;;;1.92;1.63;;;16.20;99.90;;;;;;5086963;28;20259;-96
2021/10/31 11:59:21;;;;;;;4.75;1.80;;;16.30;99.90;;;;;;5086135;28;20186;-96
2021/10/31 12:01:59;;;;;;;2.03;1.50;;;16.30;99.90;;;;;;5083493;28;20177;-96
2021/10/31 12:04:58;;;;;;;2.13;1.55;;;16.30;99.90;;;;;;5081284;28;20211;-96
2021/10/31 12:07:41;;;;;;;2.83;1.50;;;16.30;99.90;;;;;;5098466;28;20203;-96
2021/10/31 12:10:31;;;;;;;2.65;1.33;;;16.30;99.90;;;;;;5082923;28;20215;-96
2021/10/31 12:13:16;;;;;;;1.73;1.42;;;16.30;99.90;;;;;;5079554;28;20199;-96
2021/10/31 12:16:04;;;;;;;1.63;1.40;;;16.40;99.90;;;;;;5080141;28;20164;-96
2021/10/31 12:18:53;;;;;;;2.63;1.48;;;16.40;99.90;;;;;;5084287;28;20188;-96
2021/10/31 12:21:39;;;;;;;2.03;1.40;;;16.40;99.90;;;;;;5086449;28;20195;-96
2021/10/31 12:24:14;;;;;;;2.17;1.63;;;16.40;99.90;;;;;;5081765;28;20176;-96
2021/10/31 12:26:54;;;;;;;3.15;1.40;;;16.40;99.90;;;;;;5080729;28;20172;-96
2021/10/31 12:29:20;;;;;;;1.80;1.42;;;16.40;99.90;;;;;;5082379;28;20172;-96
2021/10/31 12:31:57;;;;;;;1.50;1.40;;;16.30;99.90;;;;;;5083296;28;20237;-96
2021/10/31 12:34:27;;;;;;;2.17;1.17;;;16.30;99.90;;;;;;5080720;28;20262;-96
2021/10/31 12:36:56;;;;;;;1.95;1.60;;;16.30;99.90;;;;;;5086258;28;20255;-96
2021/10/31 12:39:31;;;;;;;3.45;1.40;;;16.40;99.90;;;;;;5086854;28;20263;-96
2021/10/31 12:42:12;;;;;;;3.33;1.60;;;16.50;99.90;;;;;;5087633;28;20199;-96
2021/10/31 12:44:51;;;;;;;3.28;1.55;;;16.50;99.90;;;;;;5085636;28;20180;-96
2021/10/31 12:47:25;;;;;;;4.03;1.90;;;16.40;99.90;;;;;;5084628;28;20223;-96
2021/10/31 12:50:05;;;;;;;2.40;1.75;;;16.40;99.90;;;;;;5085019;28;20203;-96
2021/10/31 12:52:31;;;;;;;2.17;1.60;;;16.40;99.90;;;;;;5086195;28;20176;-96
2021/10/31 12:55:02;;;;;;;1.58;1.42;;;16.50;99.90;;;;;;5084784;28;20176;-96
2021/10/31 12:57:34;;;;;;;4.60;1.90;;;16.50;99.90;;;;;;5082480;28;20177;-96
2021/10/31 13:03:02;;;;;;;3.05;2.35;;;16.50;99.90;;;;;;5209111;22;20320;-96
2021/10/31 13:05:35;;;;;;;2.55;2.08;;;16.50;99.90;;;;;;5099394;28;20190;-94
2021/10/31 13:08:09;;;;;;;4.63;2.58;;;16.60;99.90;;;;;;5082726;28;20180;-95
2021/10/31 13:10:42;;;;;;;4.10;2.33;;;16.60;99.90;;;;;;5083904;28;20210;-96